createdAt,value
2023-01-08T00:01:12.890Z,9.20
2023-01-08T00:03:39.644Z,9.13
2023-01-08T00:06:08.608Z,9.18
2023-01-08T00:08:35.096Z,9.25
2023-01-08T00:11:01.924Z,9.28
2023-01-08T00:13:28.514Z,8.94
2023-01-08T00:15:55.132Z,9.19
2023-01-08T00:18:22.247Z,9.39
2023-01-08T00:20:49.147Z,9.40
2023-01-08T00:23:18.039Z,8.73
2023-01-08T00:25:45.291Z,8.27
2023-01-08T00:28:11.901Z,9.11
2023-01-08T00:30:38.500Z,8.25
2023-01-08T00:33:04.996Z,9.48
2023-01-08T00:35:31.621Z,9.00
2023-01-08T00:37:58.085Z,9.12
2023-01-08T00:40:24.750Z,9.40
2023-01-08T00:42:51.307Z,9.33
2023-01-08T00:45:17.760Z,9.34
2023-01-08T00:47:44.344Z,9.02
2023-01-08T00:50:11.392Z,9.19
2023-01-08T00:52:38.262Z,8.89
2023-01-08T00:55:05.351Z,9.02
2023-01-08T00:57:36.505Z,9.31
2023-01-08T01:00:05.305Z,9.43
2023-01-08T01:02:31.788Z,9.00
2023-01-08T01:04:58.310Z,9.44
2023-01-08T01:07:25.630Z,9.51
2023-01-08T01:09:52.263Z,8.99
2023-01-08T01:12:18.994Z,9.57
2023-01-08T01:14:45.570Z,8.29
2023-01-08T01:17:12.891Z,8.90
2023-01-08T01:19:40.879Z,9.61
2023-01-08T01:22:07.588Z,8.74
2023-01-08T01:24:34.330Z,8.79
2023-01-08T01:27:01.376Z,9.08
2023-01-08T01:29:27.904Z,9.02
2023-01-08T01:31:54.565Z,9.41
2023-01-08T01:34:21.077Z,9.43
2023-01-08T01:36:47.647Z,9.69
2023-01-08T01:39:14.322Z,8.82
2023-01-08T01:41:45.692Z,9.58
2023-01-08T01:44:34.009Z,9.83
2023-01-08T01:47:26.700Z,9.85
2023-01-08T01:49:55.389Z,9.84
2023-01-08T01:52:23.263Z,9.49
2023-01-08T01:54:52.730Z,9.68
2023-01-08T01:57:19.404Z,9.38
2023-01-08T01:59:48.380Z,9.74
2023-01-08T02:02:15.099Z,9.54
2023-01-08T02:04:41.772Z,9.84
2023-01-08T02:07:31.081Z,9.74
2023-01-08T02:10:11.333Z,9.86
2023-01-08T02:13:01.520Z,9.92
2023-01-08T02:16:01.213Z,9.69
2023-01-08T02:18:42.865Z,9.89
2023-01-08T02:21:13.261Z,9.96
2023-01-08T02:23:49.310Z,10.07
2023-01-08T02:26:30.222Z,9.68
2023-01-08T02:29:14.986Z,10.02
2023-01-08T02:31:43.175Z,9.73
2023-01-08T02:34:11.714Z,10.04
2023-01-08T02:36:53.197Z,9.98
2023-01-08T02:39:37.634Z,9.98
2023-01-08T02:42:34.560Z,9.93
2023-01-08T02:45:07.275Z,9.92
2023-01-08T02:47:43.723Z,9.85
2023-01-08T02:50:22.774Z,9.76
2023-01-08T02:53:09.409Z,9.67
2023-01-08T02:55:39.326Z,9.61
2023-01-08T02:58:06.468Z,9.56
2023-01-08T03:00:33.742Z,9.54
2023-01-08T03:03:14.225Z,9.48
2023-01-08T03:05:43.165Z,8.97
2023-01-08T03:08:11.877Z,9.36
2023-01-08T03:10:41.884Z,8.62
2023-01-08T03:13:15.141Z,9.14
2023-01-08T03:15:49.683Z,9.16
2023-01-08T03:18:21.672Z,8.78
2023-01-08T03:20:49.655Z,9.24
2023-01-08T03:23:17.958Z,8.97
2023-01-08T03:25:47.492Z,9.20
2023-01-08T03:28:20.381Z,8.87
2023-01-08T03:30:48.419Z,9.05
2023-01-08T03:33:16.533Z,8.84
2023-01-08T03:35:47.178Z,8.66
2023-01-08T03:38:32.431Z,8.92
2023-01-08T03:41:07.143Z,8.61
2023-01-08T03:43:33.796Z,8.07
2023-01-08T03:46:04.851Z,8.40
2023-01-08T03:48:34.207Z,8.07
2023-01-08T03:51:00.913Z,7.89
2023-01-08T03:53:28.248Z,7.91
2023-01-08T03:55:55.864Z,7.65
2023-01-08T03:58:22.473Z,8.60
2023-01-08T04:00:49.264Z,7.86
2023-01-08T04:03:16.334Z,8.12
2023-01-08T04:05:45.838Z,6.65
2023-01-08T04:08:12.511Z,6.71
2023-01-08T04:10:39.123Z,8.39
2023-01-08T04:13:05.705Z,8.24
2023-01-08T04:15:33.541Z,7.49
2023-01-08T04:18:00.219Z,7.35
2023-01-08T04:20:27.035Z,7.25
2023-01-08T04:22:53.635Z,8.05
2023-01-08T04:25:20.274Z,6.63
2023-01-08T04:27:46.812Z,8.18
2023-01-08T04:30:13.551Z,8.34
2023-01-08T04:32:40.092Z,8.14
2023-01-08T04:35:06.787Z,7.87
2023-01-08T04:37:33.388Z,7.65
2023-01-08T04:39:59.977Z,7.21
2023-01-08T04:42:26.504Z,7.47
2023-01-08T04:44:53.145Z,7.61
2023-01-08T04:47:19.718Z,7.18
2023-01-08T04:49:46.260Z,7.15
2023-01-08T04:52:12.826Z,7.46
2023-01-08T04:54:39.364Z,8.05
2023-01-08T04:57:05.941Z,8.25
2023-01-08T04:59:32.603Z,8.13
2023-01-08T05:01:59.213Z,8.06
2023-01-08T05:04:25.849Z,8.27
2023-01-08T05:06:52.376Z,8.21
2023-01-08T05:09:18.835Z,8.48
2023-01-08T05:11:45.495Z,8.14
2023-01-08T05:14:12.004Z,8.43
2023-01-08T05:16:38.527Z,8.35
2023-01-08T05:19:05.083Z,7.36
2023-01-08T05:21:31.626Z,7.13
2023-01-08T05:23:58.231Z,7.60
2023-01-08T05:26:24.969Z,8.47
2023-01-08T05:28:51.548Z,7.86
2023-01-08T05:31:18.412Z,8.24
2023-01-08T05:33:45.235Z,8.16
2023-01-08T05:36:13.054Z,7.54
2023-01-08T05:38:40.410Z,8.50
2023-01-08T05:41:07.921Z,8.51
2023-01-08T05:43:35.324Z,8.25
2023-01-08T05:46:02.880Z,8.47
2023-01-08T05:48:30.375Z,8.25
2023-01-08T05:50:57.018Z,8.20
2023-01-08T05:53:23.684Z,7.95
2023-01-08T05:55:50.248Z,7.64
2023-01-08T05:58:19.514Z,7.68
2023-01-08T06:00:46.328Z,6.82
2023-01-08T06:03:12.977Z,7.59
2023-01-08T06:05:39.523Z,8.00
2023-01-08T06:08:08.434Z,7.69
2023-01-08T06:10:35.297Z,8.29
2023-01-08T06:13:01.992Z,6.60
2023-01-08T06:15:28.610Z,7.68
2023-01-08T06:17:55.213Z,7.74
2023-01-08T06:20:21.704Z,7.71
2023-01-08T06:22:48.195Z,8.32
2023-01-08T06:25:14.809Z,7.59
2023-01-08T06:27:41.368Z,8.26
2023-01-08T06:30:08.636Z,7.45
2023-01-08T06:32:35.102Z,7.73
2023-01-08T06:35:01.586Z,8.20
2023-01-08T06:37:28.078Z,7.77
2023-01-08T06:39:54.642Z,8.03
2023-01-08T06:42:21.133Z,7.72
2023-01-08T06:44:47.622Z,8.25
2023-01-08T06:47:14.082Z,8.14
2023-01-08T06:49:40.573Z,7.68
2023-01-08T06:52:07.080Z,7.83
2023-01-08T06:54:33.623Z,8.32
2023-01-08T06:57:00.128Z,7.97
2023-01-08T06:59:32.870Z,8.03
2023-01-08T07:01:59.509Z,7.68
2023-01-08T07:04:26.193Z,7.63
2023-01-08T07:06:52.758Z,8.29
2023-01-08T07:09:19.306Z,7.68
2023-01-08T07:11:45.867Z,8.34
2023-01-08T07:14:12.420Z,7.85
2023-01-08T07:16:38.975Z,7.71
2023-01-08T07:19:05.621Z,8.38
2023-01-08T07:21:32.310Z,7.14
2023-01-08T07:23:59.720Z,8.34
2023-01-08T07:26:26.839Z,8.17
2023-01-08T07:28:53.454Z,7.16
2023-01-08T07:31:20.023Z,7.68
2023-01-08T07:33:46.575Z,6.32
2023-01-08T07:36:13.187Z,7.08
2023-01-08T07:38:39.656Z,8.01
2023-01-08T07:41:06.257Z,8.21
2023-01-08T07:43:32.814Z,8.07
2023-01-08T07:46:02.672Z,8.29
2023-01-08T07:48:29.179Z,7.96
2023-01-08T07:51:04.276Z,7.68
2023-01-08T07:53:30.857Z,8.15
2023-01-08T07:56:07.187Z,8.30
2023-01-08T07:58:34.721Z,7.78
2023-01-08T08:01:01.646Z,7.62
2023-01-08T08:03:28.515Z,7.96
2023-01-08T08:05:55.267Z,7.36
2023-01-08T08:08:21.801Z,7.69
2023-01-08T08:10:48.611Z,8.09
2023-01-08T08:13:15.088Z,7.24
2023-01-08T08:15:41.707Z,8.12
2023-01-08T08:18:09.105Z,7.63
2023-01-08T08:20:36.090Z,6.44
2023-01-08T08:23:04.501Z,7.79
2023-01-08T08:25:31.683Z,7.53
2023-01-08T08:28:00.457Z,6.52
2023-01-08T08:30:28.667Z,7.86
2023-01-08T08:32:56.095Z,8.21
2023-01-08T08:35:24.059Z,8.44
2023-01-08T08:37:50.937Z,7.46
2023-01-08T08:40:17.684Z,7.46
2023-01-08T08:42:44.273Z,7.49
2023-01-08T08:45:11.204Z,8.61
2023-01-08T08:47:40.647Z,8.40
2023-01-08T08:50:07.765Z,8.33
2023-01-08T08:52:34.897Z,7.18
2023-01-08T08:55:01.574Z,8.42
2023-01-08T08:57:28.178Z,8.37
2023-01-08T08:59:54.822Z,7.77
2023-01-08T09:02:21.957Z,8.44
2023-01-08T09:04:48.719Z,7.80
2023-01-08T09:07:15.561Z,7.56
2023-01-08T09:09:42.079Z,7.36
2023-01-08T09:12:09.687Z,7.65
2023-01-08T09:14:36.304Z,8.30
2023-01-08T09:17:02.922Z,7.17
2023-01-08T09:19:29.534Z,7.21
2023-01-08T09:21:56.152Z,7.85
2023-01-08T09:24:22.733Z,7.22
2023-01-08T09:26:49.423Z,7.74
2023-01-08T09:29:16.162Z,7.22
2023-01-08T09:31:43.066Z,8.30
2023-01-08T09:34:09.700Z,7.74
2023-01-08T09:36:36.764Z,7.80
2023-01-08T09:39:03.459Z,6.92
2023-01-08T09:41:36.873Z,8.02
2023-01-08T09:44:06.646Z,7.27
2023-01-08T09:46:34.864Z,7.79
2023-01-08T09:49:06.826Z,7.31
2023-01-08T09:51:35.628Z,7.59
2023-01-08T09:54:03.145Z,7.10
2023-01-08T09:56:30.631Z,8.17
2023-01-08T09:59:00.356Z,6.94
2023-01-08T10:01:29.927Z,8.36
2023-01-08T10:04:05.699Z,8.61
2023-01-08T10:06:32.777Z,7.60
2023-01-08T10:08:59.571Z,8.19
2023-01-08T10:11:31.447Z,8.70
2023-01-08T10:13:57.927Z,8.01
2023-01-08T10:16:33.828Z,8.69
2023-01-08T10:19:00.436Z,8.09
2023-01-08T10:21:36.599Z,7.02
2023-01-08T10:24:03.515Z,7.86
2023-01-08T10:26:33.655Z,8.61
2023-01-08T10:29:13.955Z,8.68
2023-01-08T10:31:55.609Z,8.73
2023-01-08T10:34:27.247Z,8.70
2023-01-08T10:36:55.298Z,8.86
2023-01-08T10:39:26.484Z,8.27
2023-01-08T10:41:56.707Z,7.51
2023-01-08T10:44:26.353Z,8.34
2023-01-08T10:46:57.441Z,7.82
2023-01-08T10:49:33.638Z,8.64
2023-01-08T10:52:00.905Z,9.04
2023-01-08T10:54:34.762Z,9.08
2023-01-08T10:57:02.739Z,9.10
2023-01-08T10:59:29.936Z,8.67
2023-01-08T11:01:59.200Z,8.89
2023-01-08T11:04:34.155Z,9.24
2023-01-08T11:07:06.949Z,9.22
2023-01-08T11:09:48.234Z,8.81
2023-01-08T11:12:37.094Z,9.25
2023-01-08T11:15:07.294Z,9.34
2023-01-08T11:17:34.947Z,8.25
2023-01-08T11:20:20.076Z,8.73
2023-01-08T11:22:46.965Z,8.03
2023-01-08T11:25:26.107Z,8.20
2023-01-08T11:27:54.133Z,8.88
2023-01-08T11:30:23.819Z,7.84
2023-01-08T11:33:02.387Z,9.24
2023-01-08T11:35:43.972Z,9.37
2023-01-08T11:38:12.958Z,8.88
2023-01-08T11:41:01.144Z,7.85
2023-01-08T11:43:40.255Z,7.56
2023-01-08T11:46:23.715Z,8.50
2023-01-08T11:49:13.468Z,9.32
2023-01-08T11:52:05.103Z,9.34
2023-01-08T11:54:54.784Z,9.03
2023-01-08T11:57:36.387Z,9.47
2023-01-08T12:00:15.800Z,9.47
2023-01-08T12:02:54.424Z,9.43
2023-01-08T12:05:58.698Z,9.67
2023-01-08T12:08:34.157Z,9.66
2023-01-08T12:11:14.159Z,9.68
2023-01-08T12:14:22.841Z,9.59
2023-01-08T12:17:16.920Z,9.60
2023-01-08T12:19:56.061Z,9.82
2023-01-08T12:22:52.041Z,9.84
2023-01-08T12:25:54.025Z,9.85
2023-01-08T12:28:40.751Z,9.37
2023-01-08T12:31:39.302Z,8.98
2023-01-08T12:34:13.113Z,9.74
2023-01-08T12:36:45.921Z,9.74
2023-01-08T12:39:25.017Z,8.83
2023-01-08T12:41:54.648Z,9.38
2023-01-08T12:44:28.882Z,9.47
2023-01-08T12:46:59.345Z,9.70
2023-01-08T12:49:40.222Z,9.05
2023-01-08T12:52:22.146Z,9.57
2023-01-08T12:54:59.049Z,9.84
2023-01-08T12:57:31.818Z,9.19
2023-01-08T13:00:08.935Z,9.35
2023-01-08T13:02:57.881Z,9.93
2023-01-08T13:05:24.522Z,9.99
2023-01-08T13:08:01.840Z,9.34
2023-01-08T13:10:31.403Z,9.90
2023-01-08T13:13:02.972Z,9.29
2023-01-08T13:15:31.690Z,9.84
2023-01-08T13:18:05.821Z,8.56
2023-01-08T13:20:33.254Z,8.91
2023-01-08T13:23:03.542Z,8.68
2023-01-08T13:25:36.501Z,9.78
2023-01-08T13:28:38.472Z,9.27
2023-01-08T13:31:29.416Z,9.78
2023-01-08T13:33:56.367Z,9.75
2023-01-08T13:36:27.192Z,9.90
2023-01-08T13:39:00.957Z,9.72
2023-01-08T13:41:35.050Z,9.76
2023-01-08T13:44:05.375Z,9.76
2023-01-08T13:46:36.511Z,9.64
2023-01-08T13:49:07.041Z,9.09
2023-01-08T13:51:42.976Z,9.73
2023-01-08T13:54:12.915Z,9.80
2023-01-08T13:56:41.993Z,9.74
2023-01-08T13:59:31.459Z,9.12
2023-01-08T14:02:01.536Z,8.51
2023-01-08T14:04:28.657Z,8.98
2023-01-08T14:07:12.638Z,9.35
2023-01-08T14:09:39.217Z,9.00
2023-01-08T14:12:05.949Z,9.33
2023-01-08T14:14:32.865Z,9.20
2023-01-08T14:16:59.905Z,9.14
2023-01-08T14:19:27.133Z,9.45
2023-01-08T14:21:57.800Z,9.32
2023-01-08T14:24:25.182Z,9.90
2023-01-08T14:26:57.628Z,8.62
2023-01-08T14:29:30.939Z,9.68
2023-01-08T14:32:02.854Z,9.84
2023-01-08T14:34:31.794Z,8.82
2023-01-08T14:36:58.616Z,9.27
2023-01-08T14:39:31.100Z,9.96
2023-01-08T14:42:23.778Z,9.08
2023-01-08T14:44:58.317Z,9.75
2023-01-08T14:47:34.197Z,8.77
2023-01-08T14:50:01.566Z,8.02
2023-01-08T14:52:28.199Z,8.27
2023-01-08T14:55:00.385Z,9.62
2023-01-08T14:57:28.083Z,9.85
2023-01-08T14:59:57.753Z,8.78
2023-01-08T15:02:37.463Z,9.72
2023-01-08T15:05:25.842Z,9.62
2023-01-08T15:08:05.032Z,9.05
2023-01-08T15:10:40.767Z,9.41
2023-01-08T15:13:24.764Z,9.58
2023-01-08T15:16:07.987Z,9.22
2023-01-08T15:18:46.829Z,9.65
2023-01-08T15:21:22.031Z,9.14
2023-01-08T15:23:54.876Z,9.53
2023-01-08T15:26:22.653Z,9.38
2023-01-08T15:28:58.899Z,8.47
2023-01-08T15:31:30.477Z,8.94
2023-01-08T15:33:58.120Z,8.24
2023-01-08T15:36:24.918Z,8.30
2023-01-08T15:38:52.472Z,9.20
2023-01-08T15:41:40.372Z,9.32
2023-01-08T15:44:09.176Z,8.07
2023-01-08T15:46:36.549Z,8.86
2023-01-08T15:49:03.315Z,8.25
2023-01-08T15:51:35.250Z,8.54
2023-01-08T15:54:02.796Z,8.95
2023-01-08T15:56:29.989Z,9.06
2023-01-08T15:58:56.808Z,7.64
2023-01-08T16:01:23.646Z,8.48
2023-01-08T16:03:51.200Z,8.68
2023-01-08T16:06:17.984Z,7.16
2023-01-08T16:08:46.180Z,8.31
2023-01-08T16:11:14.015Z,9.10
2023-01-08T16:13:40.674Z,9.15
2023-01-08T16:16:12.794Z,8.76
2023-01-08T16:18:39.834Z,8.97
2023-01-08T16:21:07.607Z,7.95
2023-01-08T16:23:38.944Z,8.70
2023-01-08T16:26:11.430Z,8.60
2023-01-08T16:28:38.607Z,8.79
2023-01-08T16:31:05.928Z,8.82
2023-01-08T16:33:32.674Z,8.53
2023-01-08T16:36:01.527Z,9.15
2023-01-08T16:38:28.493Z,8.49
2023-01-08T16:40:58.838Z,7.11
2023-01-08T16:43:30.374Z,7.21
2023-01-08T16:45:57.457Z,7.80
2023-01-08T16:48:23.990Z,8.30
2023-01-08T16:50:50.517Z,7.83
2023-01-08T16:53:22.007Z,8.97
2023-01-08T16:55:48.525Z,8.50
2023-01-08T16:58:15.174Z,8.40
2023-01-08T17:00:41.737Z,8.16
2023-01-08T17:03:09.223Z,8.50
2023-01-08T17:05:36.606Z,8.23
2023-01-08T17:08:03.255Z,8.88
2023-01-08T17:10:29.742Z,8.96
2023-01-08T17:12:56.273Z,8.92
2023-01-08T17:15:22.795Z,8.75
2023-01-08T17:17:49.376Z,8.94
2023-01-08T17:20:16.003Z,8.57
2023-01-08T17:22:42.535Z,8.53
2023-01-08T17:25:09.389Z,8.76
2023-01-08T17:27:36.063Z,7.25
2023-01-08T17:30:02.911Z,8.44
2023-01-08T17:32:30.396Z,7.83
2023-01-08T17:34:56.991Z,6.79
2023-01-08T17:37:23.539Z,8.96
2023-01-08T17:39:50.183Z,8.28
2023-01-08T17:42:25.724Z,8.33
2023-01-08T17:44:52.536Z,8.62
2023-01-08T17:47:22.438Z,9.07
2023-01-08T17:49:53.281Z,9.12
2023-01-08T17:52:20.787Z,8.04
2023-01-08T17:54:48.879Z,9.07
2023-01-08T17:57:16.905Z,8.60
2023-01-08T17:59:44.425Z,8.30
2023-01-08T18:02:13.880Z,9.11
2023-01-08T18:04:42.994Z,8.39
2023-01-08T18:07:10.202Z,9.13
2023-01-08T18:09:36.959Z,8.74
2023-01-08T18:12:03.728Z,9.08
2023-01-08T18:14:30.308Z,8.21
2023-01-08T18:16:56.843Z,8.96
2023-01-08T18:19:24.803Z,9.01
2023-01-08T18:21:51.300Z,8.50
2023-01-08T18:24:18.167Z,8.93
2023-01-08T18:26:46.489Z,8.37
2023-01-08T18:29:13.467Z,8.37
2023-01-08T18:31:40.686Z,9.02
2023-01-08T18:34:08.860Z,8.18
2023-01-08T18:36:35.997Z,8.80
2023-01-08T18:39:02.951Z,8.82
2023-01-08T18:41:48.087Z,8.25
2023-01-08T18:44:14.907Z,8.56
2023-01-08T18:46:41.668Z,8.40
2023-01-08T18:49:08.231Z,7.89
2023-01-08T18:51:34.837Z,8.46
2023-01-08T18:54:03.001Z,8.52
2023-01-08T18:56:34.441Z,8.06
2023-01-08T18:59:01.620Z,8.19
2023-01-08T19:01:29.104Z,8.92
2023-01-08T19:03:56.274Z,8.33
2023-01-08T19:06:23.213Z,8.41
2023-01-08T19:08:49.819Z,8.95
2023-01-08T19:11:16.585Z,7.49
2023-01-08T19:13:43.244Z,9.19
2023-01-08T19:16:12.885Z,8.97
2023-01-08T19:18:40.432Z,9.21
2023-01-08T19:21:08.616Z,8.53
2023-01-08T19:23:35.659Z,9.11
2023-01-08T19:26:06.980Z,9.35
2023-01-08T19:28:33.779Z,8.07
2023-01-08T19:31:01.131Z,9.10
2023-01-08T19:33:27.750Z,8.33
2023-01-08T19:35:54.482Z,8.47
2023-01-08T19:38:21.266Z,8.68
2023-01-08T19:40:47.842Z,9.24
2023-01-08T19:43:32.951Z,8.99
2023-01-08T19:46:06.183Z,9.31
2023-01-08T19:48:33.919Z,9.26
2023-01-08T19:51:07.037Z,8.85
2023-01-08T19:53:33.731Z,8.86
2023-01-08T19:56:08.854Z,9.20
2023-01-08T19:58:35.777Z,9.09
2023-01-08T20:01:09.153Z,9.09
2023-01-08T20:03:36.565Z,9.05
2023-01-08T20:06:11.465Z,9.10
2023-01-08T20:08:38.326Z,8.65
2023-01-08T20:11:10.335Z,9.08
2023-01-08T20:13:37.643Z,8.83
2023-01-08T20:16:06.432Z,8.95
2023-01-08T20:18:35.622Z,9.08
2023-01-08T20:21:10.730Z,8.05
2023-01-08T20:23:38.201Z,8.18
2023-01-08T20:26:10.233Z,8.91
2023-01-08T20:28:38.647Z,8.30
2023-01-08T20:31:29.275Z,8.92
2023-01-08T20:33:57.019Z,8.06
2023-01-08T20:36:27.652Z,8.86
2023-01-08T20:38:55.278Z,9.00
2023-01-08T20:41:22.067Z,8.07
2023-01-08T20:43:49.103Z,7.82
2023-01-08T20:46:16.257Z,8.89
2023-01-08T20:48:47.183Z,8.96
2023-01-08T20:51:15.540Z,7.67
2023-01-08T20:53:42.301Z,7.74
2023-01-08T20:56:11.945Z,8.94
2023-01-08T20:58:40.625Z,8.71
2023-01-08T21:01:16.112Z,8.89
2023-01-08T21:03:44.168Z,8.86
2023-01-08T21:06:13.820Z,8.85
2023-01-08T21:08:41.168Z,8.41
2023-01-08T21:11:09.022Z,8.98
2023-01-08T21:13:36.612Z,8.58
2023-01-08T21:16:11.804Z,9.00
2023-01-08T21:18:43.855Z,8.66
2023-01-08T21:21:11.655Z,8.99
2023-01-08T21:23:38.210Z,8.11
2023-01-08T21:26:07.987Z,8.74
2023-01-08T21:28:36.612Z,8.37
2023-01-08T21:31:10.154Z,9.03
2023-01-08T21:33:38.260Z,9.04
2023-01-08T21:36:07.183Z,8.74
2023-01-08T21:38:33.785Z,8.51
2023-01-08T21:41:02.040Z,8.44
2023-01-08T21:43:47.735Z,8.89
2023-01-08T21:46:16.328Z,8.34
2023-01-08T21:48:44.784Z,9.04
2023-01-08T21:51:29.888Z,8.62
2023-01-08T21:53:56.492Z,8.75
2023-01-08T21:56:23.120Z,8.40
2023-01-08T21:58:49.627Z,8.80
2023-01-08T22:01:16.312Z,8.84
2023-01-08T22:03:42.971Z,8.55
2023-01-08T22:06:09.635Z,8.32
2023-01-08T22:08:36.296Z,9.01
2023-01-08T22:11:07.201Z,8.03
2023-01-08T22:13:34.059Z,8.62
2023-01-08T22:16:06.045Z,8.73
2023-01-08T22:18:33.098Z,8.68
2023-01-08T22:21:04.598Z,8.81
2023-01-08T22:23:31.237Z,8.66
2023-01-08T22:25:57.866Z,8.81
2023-01-08T22:28:25.962Z,7.91
2023-01-08T22:30:52.544Z,8.48
2023-01-08T22:33:19.059Z,8.87
2023-01-08T22:35:45.728Z,8.76
2023-01-08T22:38:12.549Z,8.92
2023-01-08T22:40:39.249Z,7.68
2023-01-08T22:43:05.980Z,8.35
2023-01-08T22:45:32.537Z,8.88
2023-01-08T22:47:59.092Z,8.51
2023-01-08T22:50:25.787Z,8.86
2023-01-08T22:52:52.346Z,8.19
2023-01-08T22:55:18.970Z,8.89
2023-01-08T22:57:45.723Z,8.84
2023-01-08T23:00:12.750Z,8.56
2023-01-08T23:02:39.381Z,8.79
2023-01-08T23:05:06.490Z,8.52
2023-01-08T23:07:33.083Z,8.34
2023-01-08T23:09:59.663Z,8.35
2023-01-08T23:12:26.169Z,8.80
2023-01-08T23:14:52.690Z,8.71
2023-01-08T23:17:19.186Z,8.87
2023-01-08T23:19:45.764Z,8.29
2023-01-08T23:22:12.379Z,8.92
2023-01-08T23:24:38.889Z,8.99
2023-01-08T23:27:05.940Z,9.00
2023-01-08T23:29:32.425Z,8.75
2023-01-08T23:31:59.025Z,8.89
2023-01-08T23:34:25.654Z,7.77
2023-01-08T23:36:52.378Z,8.57
2023-01-08T23:39:18.903Z,8.78
2023-01-08T23:41:45.356Z,8.58
2023-01-08T23:44:15.021Z,8.91
2023-01-08T23:46:41.875Z,7.77
2023-01-08T23:49:09.171Z,8.78
2023-01-08T23:51:36.530Z,7.71
2023-01-08T23:54:03.246Z,8.19
2023-01-08T23:56:29.883Z,8.06
2023-01-08T23:58:57.134Z,8.52
